createdAt,value
2018-08-30T00:00:27.761Z,91.70
2018-08-30T00:02:56.856Z,91.80
2018-08-30T00:05:25.857Z,91.90
2018-08-30T00:07:54.924Z,92.00
2018-08-30T00:10:24.685Z,92.00
2018-08-30T00:12:53.715Z,92.10
2018-08-30T00:15:22.786Z,92.10
2018-08-30T00:17:51.808Z,92.20
2018-08-30T00:20:20.880Z,92.30
2018-08-30T00:22:49.924Z,92.40
2018-08-30T00:25:18.902Z,92.50
2018-08-30T00:27:48.017Z,92.40
2018-08-30T00:30:17.050Z,92.40
2018-08-30T00:32:46.067Z,92.50
2018-08-30T00:35:15.140Z,92.50
2018-08-30T00:37:44.138Z,92.50
2018-08-30T00:40:13.181Z,92.50
2018-08-30T00:42:42.209Z,92.50
2018-08-30T00:45:11.270Z,92.50
2018-08-30T00:47:43.657Z,92.60
2018-08-30T00:50:12.798Z,92.60
2018-08-30T00:52:41.790Z,92.70
2018-08-30T00:55:11.193Z,92.70
2018-08-30T00:57:40.264Z,92.70
2018-08-30T01:00:09.541Z,92.80
2018-08-30T01:02:38.632Z,92.90
2018-08-30T01:05:08.096Z,93.00
2018-08-30T01:07:37.443Z,93.10
2018-08-30T01:10:06.753Z,93.20
2018-08-30T01:12:39.889Z,93.40
2018-08-30T01:15:08.948Z,93.20
2018-08-30T01:17:37.990Z,93.00
2018-08-30T01:20:07.413Z,92.90
2018-08-30T01:22:36.457Z,92.80
2018-08-30T01:25:05.501Z,92.70
2018-08-30T01:27:34.512Z,92.70
2018-08-30T01:30:03.689Z,92.70
2018-08-30T01:32:32.835Z,92.80
2018-08-30T01:35:01.886Z,92.70
2018-08-30T01:37:30.881Z,92.90
2018-08-30T01:39:59.948Z,93.00
2018-08-30T01:42:28.944Z,93.00
2018-08-30T01:44:57.988Z,93.00
2018-08-30T01:47:27.056Z,93.10
2018-08-30T01:49:56.232Z,93.20
2018-08-30T01:52:25.313Z,93.20
2018-08-30T01:54:54.310Z,93.20
2018-08-30T01:57:23.356Z,93.30
2018-08-30T01:59:52.482Z,93.40
2018-08-30T02:02:21.537Z,93.40
2018-08-30T02:04:50.588Z,93.50
2018-08-30T02:07:19.641Z,93.60
2018-08-30T02:09:48.679Z,93.70
2018-08-30T02:12:17.682Z,93.70
2018-08-30T02:14:46.727Z,93.70
2018-08-30T02:17:15.797Z,93.70
2018-08-30T02:19:44.805Z,93.70
2018-08-30T02:22:13.881Z,94.00
2018-08-30T02:24:42.952Z,93.50
2018-08-30T02:27:12.049Z,93.30
2018-08-30T02:29:41.134Z,93.30
2018-08-30T02:32:10.221Z,93.30
2018-08-30T02:34:39.268Z,93.30
2018-08-30T02:37:08.285Z,93.30
2018-08-30T02:39:38.256Z,93.50
2018-08-30T02:42:07.285Z,93.50
2018-08-30T02:44:36.332Z,93.50
2018-08-30T02:47:07.145Z,93.50
2018-08-30T02:49:36.139Z,93.50
2018-08-30T02:52:05.244Z,93.70
2018-08-30T02:54:34.675Z,93.80
2018-08-30T02:57:03.722Z,93.70
2018-08-30T02:59:33.633Z,93.80
2018-08-30T03:02:02.729Z,94.30
2018-08-30T03:04:31.743Z,94.40
2018-08-30T03:07:00.797Z,94.40
2018-08-30T03:09:29.900Z,94.70
2018-08-30T03:11:58.971Z,94.70
2018-08-30T03:14:28.013Z,94.80
2018-08-30T03:16:57.055Z,95.30
2018-08-30T03:19:26.097Z,94.90
2018-08-30T03:21:55.185Z,94.80
2018-08-30T03:24:24.218Z,94.80
2018-08-30T03:26:53.222Z,94.80
2018-08-30T03:29:22.291Z,94.70
2018-08-30T03:31:51.289Z,94.60
2018-08-30T03:34:20.327Z,94.60
2018-08-30T03:36:49.349Z,94.70
2018-08-30T03:39:18.437Z,94.70
2018-08-30T03:41:47.474Z,94.50
2018-08-30T03:44:16.488Z,94.50
2018-08-30T03:46:45.561Z,94.40
2018-08-30T03:49:14.605Z,94.30
2018-08-30T03:51:43.685Z,94.20
2018-08-30T03:54:12.836Z,94.20
2018-08-30T03:56:41.935Z,94.40
2018-08-30T03:59:10.985Z,94.30
2018-08-30T04:01:40.954Z,94.20
2018-08-30T04:04:10.007Z,94.20
2018-08-30T04:06:39.040Z,94.10
2018-08-30T04:09:09.322Z,94.10
2018-08-30T04:11:38.320Z,94.20
2018-08-30T04:14:07.484Z,94.20
2018-08-30T04:16:36.508Z,94.30
2018-08-30T04:19:07.656Z,94.40
2018-08-30T04:21:37.339Z,94.30
2018-08-30T04:24:08.182Z,94.30
2018-08-30T04:26:37.270Z,94.20
2018-08-30T04:29:06.325Z,94.10
2018-08-30T04:31:35.505Z,94.10
2018-08-30T04:34:04.453Z,94.00
2018-08-30T04:36:33.525Z,94.00
2018-08-30T04:39:02.568Z,94.10
2018-08-30T04:41:31.668Z,94.10
2018-08-30T04:44:00.720Z,94.20
2018-08-30T04:46:29.773Z,94.30
2018-08-30T04:48:58.779Z,94.30
2018-08-30T04:51:27.826Z,94.50
2018-08-30T04:53:56.960Z,94.50
2018-08-30T04:56:26.103Z,94.50
2018-08-30T04:58:55.171Z,94.50
2018-08-30T05:01:24.225Z,94.40
2018-08-30T05:03:53.301Z,94.40
2018-08-30T05:06:22.350Z,94.30
2018-08-30T05:08:51.337Z,94.20
2018-08-30T05:11:20.399Z,94.10
2018-08-30T05:13:49.477Z,94.10
2018-08-30T05:16:18.541Z,94.10
2018-08-30T05:18:47.615Z,94.00
2018-08-30T05:21:16.753Z,93.90
2018-08-30T05:23:45.869Z,93.80
2018-08-30T05:26:14.886Z,93.80
2018-08-30T05:28:43.934Z,93.80
2018-08-30T05:31:12.969Z,93.70
2018-08-30T05:33:42.005Z,93.60
2018-08-30T05:36:11.082Z,93.60
2018-08-30T05:38:40.169Z,93.60
2018-08-30T05:41:09.215Z,93.40
2018-08-30T05:43:38.300Z,93.50
2018-08-30T05:46:07.442Z,93.50
2018-08-30T05:48:36.524Z,93.50
2018-08-30T05:51:05.647Z,93.50
2018-08-30T05:53:34.711Z,93.40
2018-08-30T05:56:03.841Z,93.40
2018-08-30T05:58:32.918Z,93.40
2018-08-30T06:01:01.987Z,93.30
2018-08-30T06:03:31.329Z,93.20
2018-08-30T06:06:00.354Z,93.10
2018-08-30T06:08:29.494Z,93.20
2018-08-30T06:10:58.540Z,93.00
2018-08-30T06:13:27.589Z,92.90
2018-08-30T06:15:56.814Z,92.80
2018-08-30T06:18:25.826Z,92.60
2018-08-30T06:20:55.814Z,92.50
2018-08-30T06:23:24.897Z,92.30
2018-08-30T06:25:53.948Z,92.10
2018-08-30T06:28:23.010Z,91.80
2018-08-30T06:30:52.102Z,91.80
2018-08-30T06:33:21.152Z,91.70
2018-08-30T06:35:50.225Z,91.50
2018-08-30T06:38:19.312Z,91.30
2018-08-30T06:40:48.376Z,91.10
2018-08-30T06:43:17.506Z,91.10
2018-08-30T06:45:46.616Z,90.80
2018-08-30T06:48:15.688Z,90.90
2018-08-30T06:50:44.846Z,90.90
2018-08-30T06:53:14.316Z,90.70
2018-08-30T06:55:43.338Z,90.50
2018-08-30T06:58:12.478Z,90.40
2018-08-30T07:00:41.494Z,90.40
2018-08-30T07:03:10.553Z,90.20
2018-08-30T07:05:39.669Z,90.20
2018-08-30T07:08:08.708Z,90.20
2018-08-30T07:12:46.129Z,89.90
2018-08-30T07:15:15.294Z,89.70
2018-08-30T07:17:44.391Z,88.90
2018-08-30T07:20:13.484Z,88.40
2018-08-30T07:22:42.566Z,88.20
2018-08-30T07:25:11.566Z,87.50
2018-08-30T07:27:40.789Z,86.80
2018-08-30T07:30:12.263Z,86.60
2018-08-30T07:32:41.437Z,87.10
2018-08-30T07:35:10.698Z,86.70
2018-08-30T07:37:39.712Z,86.10
2018-08-30T07:44:46.176Z,84.40
2018-08-30T07:47:15.268Z,83.60
2018-08-30T07:49:45.297Z,82.80
2018-08-30T07:52:14.530Z,82.70
2018-08-30T07:54:43.605Z,81.60
2018-08-30T07:57:12.650Z,80.60
2018-08-30T07:59:41.709Z,81.10
2018-08-30T08:02:10.741Z,80.30
2018-08-30T08:04:39.781Z,78.40
2018-08-30T08:07:09.044Z,78.50
2018-08-30T08:09:38.135Z,78.90
2018-08-30T08:12:07.476Z,78.10
2018-08-30T08:14:36.612Z,78.10
2018-08-30T08:17:06.965Z,77.50
2018-08-30T08:19:36.112Z,77.30
2018-08-30T08:22:05.209Z,78.10
2018-08-30T08:24:34.815Z,75.70
2018-08-30T08:27:04.496Z,73.80
2018-08-30T08:29:35.178Z,72.40
2018-08-30T08:32:05.104Z,72.50
2018-08-30T08:34:34.341Z,72.80
2018-08-30T08:37:04.084Z,73.70
2018-08-30T08:39:33.220Z,71.50
2018-08-30T08:42:02.477Z,72.50
2018-08-30T08:44:31.577Z,70.70
2018-08-30T08:47:01.586Z,70.90
2018-08-30T08:49:30.656Z,70.50
2018-08-30T08:51:59.853Z,69.10
2018-08-30T08:54:28.973Z,69.30
2018-08-30T08:56:58.254Z,68.60
2018-08-30T08:59:27.346Z,68.70
2018-08-30T09:06:34.253Z,68.30
2018-08-30T09:09:05.709Z,68.00
2018-08-30T09:11:36.801Z,68.00
2018-08-30T09:14:06.860Z,66.00
2018-08-30T09:16:36.571Z,64.50
2018-08-30T09:19:06.859Z,64.40
2018-08-30T09:21:36.948Z,64.60
2018-08-30T09:24:06.339Z,63.90
2018-08-30T09:26:36.064Z,63.10
2018-08-30T09:29:05.321Z,63.50
2018-08-30T09:31:35.571Z,62.80
2018-08-30T09:34:06.016Z,62.10
2018-08-30T09:36:35.226Z,62.90
2018-08-30T09:39:05.636Z,61.80
2018-08-30T09:41:35.871Z,60.20
2018-08-30T09:44:05.378Z,59.40
2018-08-30T09:46:35.185Z,59.30
2018-08-30T09:49:05.384Z,58.70
2018-08-30T09:51:35.983Z,58.20
2018-08-30T09:54:05.260Z,57.30
2018-08-30T09:56:35.046Z,56.70
2018-08-30T09:59:05.930Z,56.60
2018-08-30T10:01:40.158Z,56.20
2018-08-30T10:04:09.243Z,54.60
2018-08-30T10:06:39.057Z,55.40
2018-08-30T10:09:10.698Z,55.50
2018-08-30T10:11:40.293Z,54.80
2018-08-30T10:14:10.102Z,54.60
2018-08-30T10:16:39.142Z,54.90
2018-08-30T10:19:08.382Z,54.20
2018-08-30T10:21:37.585Z,54.00
2018-08-30T10:24:06.705Z,54.10
2018-08-30T10:26:36.692Z,53.00
2018-08-30T10:29:05.955Z,53.10
2018-08-30T10:31:35.099Z,53.60
2018-08-30T10:34:04.193Z,51.40
2018-08-30T10:36:37.285Z,51.50
2018-08-30T10:39:08.106Z,51.50
2018-08-30T10:41:38.415Z,52.20
2018-08-30T10:44:08.891Z,52.20
2018-08-30T10:46:38.004Z,51.20
2018-08-30T10:49:07.109Z,50.20
2018-08-30T10:51:36.179Z,49.80
2018-08-30T10:54:05.343Z,49.50
2018-08-30T10:56:35.307Z,48.70
2018-08-30T11:01:11.828Z,47.30
2018-08-30T11:03:41.393Z,47.50
2018-08-30T11:06:10.982Z,47.10
2018-08-30T11:08:40.697Z,45.60
2018-08-30T11:11:10.421Z,45.10
2018-08-30T11:13:39.662Z,46.20
2018-08-30T11:16:08.786Z,45.90
2018-08-30T11:18:37.980Z,45.70
2018-08-30T11:21:07.741Z,44.70
2018-08-30T11:23:36.861Z,44.50
2018-08-30T11:26:05.959Z,44.80
2018-08-30T11:28:35.053Z,43.20
2018-08-30T11:31:04.199Z,43.40
2018-08-30T11:33:33.297Z,45.20
2018-08-30T11:36:02.378Z,45.10
2018-08-30T11:38:32.729Z,44.80
2018-08-30T11:41:02.638Z,43.70
2018-08-30T11:43:31.849Z,43.00
2018-08-30T11:46:01.291Z,43.40
2018-08-30T11:48:30.308Z,41.10
2018-08-30T11:50:59.534Z,41.90
2018-08-30T11:53:28.592Z,42.80
2018-08-30T11:55:57.696Z,42.80
2018-08-30T11:58:26.746Z,42.20
2018-08-30T12:00:55.847Z,42.20
2018-08-30T12:03:24.880Z,42.90
2018-08-30T12:05:54.167Z,43.30
2018-08-30T12:08:23.239Z,43.30
2018-08-30T12:10:52.371Z,43.50
2018-08-30T12:13:21.584Z,42.40
2018-08-30T12:15:50.673Z,43.30
2018-08-30T12:18:19.759Z,42.30
2018-08-30T12:20:48.905Z,42.20
2018-08-30T12:23:17.922Z,41.50
2018-08-30T12:25:47.021Z,40.80
2018-08-30T12:28:16.125Z,40.00
2018-08-30T12:30:45.171Z,40.60
2018-08-30T12:33:14.241Z,41.20
2018-08-30T12:35:43.442Z,40.50
2018-08-30T12:38:12.604Z,39.40
2018-08-30T12:40:41.768Z,39.80
2018-08-30T12:43:10.866Z,40.00
2018-08-30T12:45:39.920Z,40.90
2018-08-30T12:48:08.979Z,41.30
2018-08-30T12:50:38.198Z,40.10
2018-08-30T12:53:07.902Z,39.80
2018-08-30T12:55:36.974Z,38.10
2018-08-30T12:58:06.960Z,39.40
2018-08-30T13:00:36.100Z,40.10
2018-08-30T13:03:05.299Z,41.30
2018-08-30T13:05:34.534Z,41.10
2018-08-30T13:08:03.486Z,40.50
2018-08-30T13:10:32.615Z,40.10
2018-08-30T13:13:01.642Z,42.10
2018-08-30T13:15:31.412Z,41.50
2018-08-30T13:18:00.819Z,41.30
2018-08-30T13:20:29.973Z,39.80
2018-08-30T13:22:59.455Z,39.60
2018-08-30T13:25:28.650Z,40.00
2018-08-30T13:27:57.841Z,40.10
2018-08-30T13:30:26.911Z,40.00
2018-08-30T13:32:56.237Z,39.60
2018-08-30T13:35:26.272Z,39.60
2018-08-30T13:37:55.360Z,39.90
2018-08-30T13:40:24.504Z,39.50
2018-08-30T13:42:53.695Z,39.70
2018-08-30T13:45:22.781Z,40.00
2018-08-30T13:47:51.877Z,40.40
2018-08-30T13:50:20.883Z,40.70
2018-08-30T13:52:50.110Z,40.40
2018-08-30T13:55:19.209Z,40.60
2018-08-30T13:57:48.722Z,40.90
2018-08-30T14:00:17.546Z,40.20
2018-08-30T14:02:46.444Z,40.00
2018-08-30T14:05:15.478Z,39.60
2018-08-30T14:07:44.722Z,39.10
2018-08-30T14:10:14.107Z,39.60
2018-08-30T14:12:42.947Z,39.50
2018-08-30T14:15:12.395Z,39.80
2018-08-30T14:17:40.989Z,39.00
2018-08-30T14:20:09.968Z,39.10
2018-08-30T14:22:39.029Z,39.80
2018-08-30T14:25:08.179Z,39.70
2018-08-30T14:27:37.237Z,40.00
2018-08-30T14:30:06.330Z,40.30
2018-08-30T14:32:35.404Z,40.10
2018-08-30T14:35:04.509Z,41.10
2018-08-30T14:37:33.584Z,42.30
2018-08-30T14:40:02.701Z,43.20
2018-08-30T14:42:31.722Z,43.70
2018-08-30T14:45:00.761Z,44.50
2018-08-30T14:47:29.892Z,45.50
2018-08-30T14:49:58.894Z,46.60
2018-08-30T14:52:27.955Z,46.50
2018-08-30T14:54:57.033Z,47.40
2018-08-30T14:57:26.174Z,47.10
2018-08-30T14:59:55.189Z,47.50
2018-08-30T15:02:24.359Z,47.80
2018-08-30T15:04:53.378Z,48.30
2018-08-30T15:07:23.242Z,48.40
2018-08-30T15:09:53.232Z,49.00
2018-08-30T15:12:22.351Z,50.00
2018-08-30T15:14:51.969Z,50.40
2018-08-30T15:17:21.232Z,51.60
2018-08-30T15:19:56.487Z,52.00
2018-08-30T15:22:25.680Z,52.20
2018-08-30T15:24:54.773Z,51.70
2018-08-30T15:27:24.413Z,51.80
2018-08-30T15:29:53.625Z,52.30
2018-08-30T15:32:22.671Z,52.30
2018-08-30T15:34:52.233Z,52.60
2018-08-30T15:37:21.273Z,53.00
2018-08-30T15:39:50.665Z,53.30
2018-08-30T15:42:20.221Z,54.00
2018-08-30T15:44:50.382Z,54.30
2018-08-30T15:47:21.974Z,54.10
2018-08-30T15:49:51.007Z,53.80
2018-08-30T15:52:20.070Z,54.80
2018-08-30T15:54:49.117Z,55.70
2018-08-30T15:57:18.263Z,58.10
2018-08-30T15:59:47.257Z,58.70
2018-08-30T16:02:16.320Z,59.40
2018-08-30T16:04:45.344Z,60.30
2018-08-30T16:07:14.415Z,61.60
2018-08-30T16:09:43.425Z,62.80
2018-08-30T16:12:12.482Z,63.60
2018-08-30T16:14:41.590Z,64.70
2018-08-30T16:17:10.767Z,66.30
2018-08-30T16:19:39.735Z,68.90
2018-08-30T16:22:09.181Z,70.60
2018-08-30T16:24:38.241Z,73.00
2018-08-30T16:27:07.385Z,74.80
2018-08-30T16:29:36.481Z,76.00
2018-08-30T16:32:05.585Z,77.60
2018-08-30T16:34:34.680Z,78.20
2018-08-30T16:37:03.733Z,78.50
2018-08-30T16:39:32.741Z,76.90
2018-08-30T16:42:04.184Z,76.70
2018-08-30T16:44:33.265Z,76.20
2018-08-30T16:47:02.347Z,75.90
2018-08-30T16:49:31.369Z,75.10
2018-08-30T16:52:00.421Z,74.80
2018-08-30T16:54:29.485Z,75.50
2018-08-30T16:57:02.293Z,77.20
2018-08-30T16:59:31.357Z,78.50
2018-08-30T17:02:00.510Z,81.30
2018-08-30T17:04:29.537Z,85.00
2018-08-30T17:06:58.675Z,86.10
2018-08-30T17:09:27.747Z,87.90
2018-08-30T17:11:56.927Z,90.60
2018-08-30T17:14:26.053Z,91.60
2018-08-30T17:16:55.099Z,93.00
2018-08-30T17:19:29.881Z,92.80
2018-08-30T17:21:58.922Z,93.20
2018-08-30T17:24:28.054Z,93.40
2018-08-30T17:26:57.155Z,93.30
2018-08-30T17:29:26.232Z,93.70
2018-08-30T17:31:55.282Z,93.60
2018-08-30T17:37:27.769Z,94.00
2018-08-30T17:39:57.192Z,94.10
2018-08-30T17:42:26.261Z,94.60
2018-08-30T17:44:55.659Z,94.70
2018-08-30T17:47:24.732Z,95.00
2018-08-30T17:49:53.790Z,95.00
2018-08-30T17:52:22.874Z,94.90
2018-08-30T17:54:52.044Z,94.50
2018-08-30T17:57:21.109Z,94.40
2018-08-30T17:59:52.113Z,93.90
2018-08-30T18:02:21.187Z,93.60
2018-08-30T18:04:50.218Z,94.00
2018-08-30T18:07:19.288Z,93.80
2018-08-30T18:09:48.310Z,94.10
2018-08-30T18:12:17.539Z,94.40
2018-08-30T18:14:46.507Z,94.30
2018-08-30T18:17:15.596Z,94.40
2018-08-30T18:19:44.694Z,93.80
2018-08-30T18:22:13.764Z,93.70
2018-08-30T18:24:42.785Z,93.70
2018-08-30T18:27:11.850Z,94.00
2018-08-30T18:29:40.995Z,94.10
2018-08-30T18:32:10.147Z,94.50
2018-08-30T18:34:39.245Z,94.80
2018-08-30T18:37:08.617Z,95.00
2018-08-30T18:39:37.756Z,95.20
2018-08-30T18:42:06.914Z,95.30
2018-08-30T18:44:36.048Z,95.50
2018-08-30T18:47:05.232Z,95.50
2018-08-30T18:49:34.523Z,95.70
2018-08-30T18:52:03.599Z,95.60
2018-08-30T18:54:32.609Z,96.10
2018-08-30T18:57:01.741Z,96.10
2018-08-30T18:59:30.881Z,96.40
2018-08-30T19:02:00.293Z,96.40
2018-08-30T19:04:29.314Z,96.10
2018-08-30T19:06:58.398Z,96.30
2018-08-30T19:09:27.783Z,96.50
2018-08-30T19:11:56.822Z,96.50
2018-08-30T19:14:25.965Z,96.50
2018-08-30T19:17:00.402Z,96.50
2018-08-30T19:19:30.211Z,96.40
2018-08-30T19:21:59.412Z,96.40
2018-08-30T19:25:36.373Z,96.40
2018-08-30T19:28:05.491Z,96.20
2018-08-30T19:30:34.765Z,96.00
2018-08-30T19:33:03.869Z,95.90
2018-08-30T19:35:38.053Z,95.90
2018-08-30T19:40:20.099Z,96.10
2018-08-30T19:42:49.177Z,96.00
2018-08-30T19:45:18.242Z,95.50
2018-08-30T19:47:48.196Z,95.40
2018-08-30T19:50:17.272Z,95.30
2018-08-30T19:52:46.333Z,95.20
2018-08-30T19:55:16.665Z,95.00
2018-08-30T19:57:46.156Z,95.10
2018-08-30T20:00:15.774Z,95.20
2018-08-30T20:02:44.863Z,95.50
2018-08-30T20:05:14.100Z,95.50
2018-08-30T20:07:43.231Z,95.60
2018-08-30T20:10:12.289Z,95.30
2018-08-30T20:12:41.307Z,95.60
2018-08-30T20:15:10.529Z,96.00
2018-08-30T20:17:39.575Z,95.80
2018-08-30T20:20:08.815Z,96.00
2018-08-30T20:22:38.002Z,96.10
2018-08-30T20:25:07.608Z,96.10
2018-08-30T20:27:36.644Z,96.20
2018-08-30T20:30:05.824Z,96.30
2018-08-30T20:32:34.923Z,96.40
2018-08-30T20:35:04.093Z,96.60
2018-08-30T20:37:33.172Z,96.70
2018-08-30T20:40:02.261Z,96.80
2018-08-30T20:42:31.329Z,96.50
2018-08-30T20:45:00.346Z,96.50
2018-08-30T20:47:29.453Z,96.40
2018-08-30T20:49:58.507Z,96.40
2018-08-30T20:52:27.616Z,96.50
2018-08-30T20:54:56.717Z,96.70
2018-08-30T20:57:26.563Z,96.50
2018-08-30T20:59:55.905Z,96.70
2018-08-30T21:02:25.297Z,96.70
2018-08-30T21:04:55.445Z,96.90
2018-08-30T21:07:25.146Z,96.50
2018-08-30T21:09:54.250Z,96.40
2018-08-30T21:12:23.595Z,96.20
2018-08-30T21:14:52.629Z,96.20
2018-08-30T21:17:21.773Z,96.20
2018-08-30T21:19:50.856Z,96.30
2018-08-30T21:22:19.954Z,96.20
2018-08-30T21:24:50.068Z,96.20
2018-08-30T21:27:21.924Z,95.80
2018-08-30T21:29:51.505Z,95.50
2018-08-30T21:32:22.546Z,95.40
2018-08-30T21:34:51.857Z,95.20
2018-08-30T21:37:20.885Z,95.50
2018-08-30T21:39:51.253Z,95.10
2018-08-30T21:42:20.622Z,95.10
2018-08-30T21:44:49.781Z,95.10
2018-08-30T21:47:18.858Z,95.20
2018-08-30T21:49:47.893Z,95.10
2018-08-30T21:52:16.913Z,95.10
2018-08-30T21:54:46.416Z,95.10
2018-08-30T21:57:15.577Z,95.30
2018-08-30T21:59:44.645Z,95.70
2018-08-30T22:02:14.900Z,95.30
2018-08-30T22:04:43.950Z,95.40
2018-08-30T22:07:13.989Z,95.50
2018-08-30T22:09:43.906Z,95.40
2018-08-30T22:12:12.966Z,95.40
2018-08-30T22:14:42.034Z,95.40
2018-08-30T22:17:11.365Z,95.60
2018-08-30T22:19:40.418Z,95.60
2018-08-30T22:22:09.550Z,95.60
2018-08-30T22:24:38.601Z,95.60
2018-08-30T22:27:07.683Z,95.80
2018-08-30T22:29:37.204Z,96.20
2018-08-30T22:32:07.553Z,96.00
2018-08-30T22:34:36.642Z,96.00
2018-08-30T22:37:05.656Z,95.90
2018-08-30T22:39:34.698Z,95.90
2018-08-30T22:42:03.723Z,96.00
2018-08-30T22:44:32.752Z,95.90
2018-08-30T22:47:01.767Z,95.90
2018-08-30T22:49:30.829Z,96.20
2018-08-30T22:52:00.229Z,96.30
2018-08-30T22:54:29.272Z,96.50
2018-08-30T22:56:58.508Z,96.50
2018-08-30T22:59:27.542Z,96.70
2018-08-30T23:01:56.597Z,96.80
2018-08-30T23:04:25.653Z,96.70
2018-08-30T23:06:54.705Z,96.70
2018-08-30T23:09:24.367Z,96.70
2018-08-30T23:11:53.401Z,96.60
2018-08-30T23:14:22.483Z,96.60
2018-08-30T23:16:51.532Z,96.60
2018-08-30T23:19:20.645Z,96.70
2018-08-30T23:21:49.700Z,96.80
2018-08-30T23:24:18.732Z,96.80
2018-08-30T23:26:47.809Z,96.90
2018-08-30T23:29:16.793Z,96.90
2018-08-30T23:31:45.849Z,96.90
2018-08-30T23:34:15.043Z,97.10
2018-08-30T23:36:44.107Z,97.30
2018-08-30T23:39:13.233Z,97.50
2018-08-30T23:41:42.283Z,97.50
2018-08-30T23:44:11.401Z,97.50
2018-08-30T23:46:40.488Z,97.50
2018-08-30T23:49:09.529Z,97.40
2018-08-30T23:51:38.582Z,97.40
2018-08-30T23:54:07.990Z,97.20
2018-08-30T23:56:36.989Z,97.00
2018-08-30T23:59:16.998Z,97.20
